Time;durP1;ratioP1;P1;durP2;ratioP2;P2;SDS_P1;SDS_P2;PMS_P1;PMS_P2;Temp;Humidity;BMP_temperature;BMP_pressure;BME280_temperature;BME280_humidity;BME280_pressure;Samples;Min_cycle;Max_cycle;Signal;HPM_P1;HPM_P2
2022/11/05 00:10:22;;;;;;;;;;;10.50;79.80;;;9.46;nan;95730.75;5066005;28;19921;-82
2022/11/05 00:18:22;;;;;;;;;;;10.50;79.90;;;9.45;nan;95729.13;5047860;28;20234;-82
2022/11/05 00:20:50;;;;;;;;;;;10.50;79.90;;;9.46;nan;95735.38;5064648;28;19920;-82
2022/11/05 00:26:04;;;;;;;;;;;10.50;79.90;;;9.45;nan;95742.78;5065491;28;19927;-82
2022/11/05 00:28:32;;;;;;;;;;;10.50;79.90;;;9.46;nan;95743.59;5048131;28;19926;-82
2022/11/05 00:31:00;;;;;;;;;;;10.40;79.90;;;9.45;nan;95745.50;5047867;28;19921;-82
2022/11/05 00:33:29;;;;;;;;;;;10.50;80.00;;;9.45;nan;95739.22;5047536;28;19937;-82
2022/11/05 00:35:57;;;;;;;;;;;10.50;80.00;;;9.45;nan;95740.03;5065302;28;19929;-82
2022/11/05 00:38:25;;;;;;;;;;;10.50;80.00;;;9.45;nan;95737.31;5065560;28;20090;-82
2022/11/05 00:40:53;;;;;;;;;;;10.50;80.00;;;9.44;nan;95730.22;5065490;28;20120;-82
2022/11/05 00:46:07;;;;;;;;;;;10.40;79.90;;;9.45;nan;95722.81;5047187;28;19920;-83
2022/11/05 00:51:21;;;;;;;;;;;10.50;80.10;;;9.43;nan;95720.38;5064079;28;19920;-82
2022/11/05 00:53:49;;;;;;;;;;;10.50;80.10;;;9.44;nan;95713.81;5080674;28;20224;-82
2022/11/05 00:56:17;;;;;;;;;;;10.50;80.00;;;9.43;nan;95717.63;5047133;28;19920;-83
2022/11/05 00:58:45;;;;;;;;;;;10.50;80.10;;;9.43;nan;95717.63;5065113;28;19920;-83
2022/11/05 01:01:13;;;;;;;;;;;10.50;80.10;;;9.43;nan;95714.91;5047028;28;19920;-82
2022/11/05 01:03:42;;;;;;;;;;;10.40;80.00;;;9.43;nan;95711.34;5063834;28;19927;-82
2022/11/05 01:06:12;;;;;;;;;;;10.40;80.00;;;9.43;nan;95709.44;5063720;28;20212;-82
2022/11/05 01:08:40;;;;;;;;;;;10.50;80.10;;;9.43;nan;95701.25;5047190;28;19921;-83
2022/11/05 01:11:10;;;;;;;;;;;10.40;80.00;;;9.42;nan;95705.06;5063683;28;19920;-82
2022/11/05 01:13:39;;;;;;;;;;;10.40;80.00;;;9.43;nan;95709.44;5064738;28;19927;-82
2022/11/05 01:16:07;;;;;;;;;;;10.50;80.10;;;9.43;nan;95703.16;5046320;28;19921;-83
2022/11/05 01:18:36;;;;;;;;;;;10.50;80.10;;;9.42;nan;95699.59;5063680;28;19920;-83
2022/11/05 01:21:12;;;;;;;;;;;10.40;80.10;;;9.42;nan;95705.06;5064644;28;19927;-82
2022/11/05 01:23:40;;;;;;;;;;;10.40;80.00;;;9.42;nan;95701.53;5064629;28;19921;-83
2022/11/05 01:26:07;;;;;;;;;;;10.40;80.00;;;9.42;nan;95705.06;5063400;28;20116;-82
2022/11/05 01:28:35;;;;;;;;;;;10.40;80.00;;;9.42;nan;95696.06;5063463;28;19927;-82
2022/11/05 01:31:03;;;;;;;;;;;10.40;80.00;;;9.42;nan;95696.06;5046867;28;19920;-82
2022/11/05 01:33:31;;;;;;;;;;;10.40;80.10;;;9.41;nan;95700.69;5063390;28;20384;-82
2022/11/05 01:35:59;;;;;;;;;;;10.40;80.20;;;9.41;nan;95692.50;5079953;28;19927;-82
2022/11/05 01:38:28;;;;;;;;;;;10.40;80.10;;;9.41;nan;95684.31;5063477;28;19920;-82
2022/11/05 01:40:56;;;;;;;;;;;10.40;80.10;;;9.41;nan;95689.78;5046692;28;19921;-82
2022/11/05 01:43:24;;;;;;;;;;;10.40;80.10;;;9.41;nan;95691.69;5063207;28;19920;-82
2022/11/05 01:45:53;;;;;;;;;;;10.40;80.00;;;9.40;nan;95682.66;5046253;28;20116;-82
2022/11/05 01:48:22;;;;;;;;;;;10.40;80.10;;;9.40;nan;95681.88;5063245;28;20240;-82
2022/11/05 01:50:53;;;;;;;;;;;10.40;80.20;;;9.41;nan;95688.97;5063071;28;19931;-82
2022/11/05 01:53:25;;;;;;;;;;;10.40;80.10;;;9.40;nan;95690.88;5062981;28;19921;-83
2022/11/05 01:55:57;;;;;;;;;;;10.40;80.10;;;9.40;nan;95693.59;5062581;28;19921;-82
2022/11/05 01:58:28;;;;;;;;;;;10.40;80.20;;;9.39;nan;95683.75;5063110;28;19927;-83
2022/11/05 02:00:56;;;;;;;;;;;10.40;80.20;;;9.39;nan;95681.03;5064113;28;19943;-82
2022/11/05 02:03:24;;;;;;;;;;;10.40;80.20;;;9.40;nan;95688.13;5099649;28;19946;-83
2022/11/05 02:05:52;;;;;;;;;;;10.40;80.20;;;9.39;nan;95689.22;5066203;28;19920;-83
2022/11/05 02:08:25;;;;;;;;;;;10.40;80.30;;;9.40;nan;95690.88;5082997;28;20226;-83
2022/11/05 02:10:54;;;;;;;;;;;10.40;80.30;;;9.39;nan;95691.97;5066137;28;19926;-83
2022/11/05 02:13:22;;;;;;;;;;;10.40;80.40;;;9.39;nan;95689.22;5065795;28;19920;-84
2022/11/05 02:15:56;;;;;;;;;;;10.40;80.20;;;9.39;nan;95691.97;5083807;28;19920;-83
2022/11/05 02:18:29;;;;;;;;;;;10.40;80.20;;;9.40;nan;95679.13;5066140;28;19920;-83
2022/11/05 02:21:03;;;;;;;;;;;10.40;80.20;;;9.39;nan;95691.16;5082722;28;20238;-83
2022/11/05 02:24:03;;;;;;;;;;;10.40;80.20;;;9.38;nan;95687.59;5082815;28;19920;-83
2022/11/05 02:27:04;;;;;;;;;;;10.40;80.20;;;9.39;nan;95682.97;4997759;28;19926;-84
2022/11/05 02:30:02;;;;;;;;;;;10.40;80.30;;;9.38;nan;95681.31;5081584;28;19926;-83
2022/11/05 02:32:37;;;;;;;;;;;10.40;80.30;;;9.38;nan;95679.38;5090772;28;20209;-83
2022/11/05 02:35:11;;;;;;;;;;;10.40;80.30;;;9.37;nan;95677.75;5045467;28;19927;-83
2022/11/05 02:37:40;;;;;;;;;;;10.40;80.40;;;9.38;nan;95679.38;5063571;28;19934;-83
2022/11/05 02:40:13;;;;;;;;;;;10.40;80.30;;;9.37;nan;95683.22;5062416;28;20119;-83
2022/11/05 02:42:44;;;;;;;;;;;10.40;80.30;;;9.37;nan;95683.22;5063568;28;19921;-83
2022/11/05 02:45:19;;;;;;;;;;;10.40;80.40;;;9.36;nan;95684.31;5045316;28;20124;-83
2022/11/05 02:47:51;;;;;;;;;;;10.40;80.30;;;9.38;nan;95686.78;5062419;28;19927;-83
2022/11/05 02:50:21;;;;;;;;;;;10.40;80.30;;;9.36;nan;95687.88;5062611;28;19921;-83
2022/11/05 02:52:53;;;;;;;;;;;10.40;80.40;;;9.36;nan;95687.03;5045667;28;19920;-83
2022/11/05 02:55:24;;;;;;;;;;;10.40;80.30;;;9.36;nan;95687.03;5061946;28;20093;-83
2022/11/05 02:57:52;;;;;;;;;;;10.40;80.40;;;9.35;nan;95680.78;5062206;28;19920;-83
2022/11/05 03:00:50;;;;;;;;;;;10.40;80.40;;;9.35;nan;95686.22;5062265;28;19927;-83
2022/11/05 03:03:26;;;;;;;;;;;10.40;80.40;;;9.34;nan;95679.13;5004799;28;19927;-83
2022/11/05 03:06:04;;;;;;;;;;;10.40;80.40;;;9.37;nan;95672.28;5051249;28;19921;-83
2022/11/05 03:08:38;;;;;;;;;;;10.40;80.40;;;9.35;nan;95669.84;5063324;28;19923;-83
2022/11/05 03:11:08;;;;;;;;;;;10.40;80.40;;;9.35;nan;95667.09;5045405;28;19921;-83
2022/11/05 03:13:39;;;;;;;;;;;10.40;80.40;;;9.35;nan;95663.56;5045341;28;19922;-84
2022/11/05 03:16:10;;;;;;;;;;;10.40;80.40;;;9.34;nan;95678.31;5044258;28;19920;-84
2022/11/05 03:18:41;;;;;;;;;;;10.30;80.40;;;9.35;nan;95669.03;5062282;28;19934;-84
2022/11/05 03:21:10;;;;;;;;;;;10.40;80.40;;;9.35;nan;95669.03;5061901;28;19921;-83
2022/11/05 03:23:42;;;;;;;;;;;10.40;80.40;;;9.34;nan;95672.84;5062894;28;19920;-83
2022/11/05 03:26:12;;;;;;;;;;;10.40;80.40;;;9.34;nan;95678.31;5045147;28;19920;-83
2022/11/05 03:28:41;;;;;;;;;;;10.30;80.50;;;9.34;nan;95687.31;5089151;28;20109;-83
2022/11/05 03:31:09;;;;;;;;;;;10.30;80.50;;;9.33;nan;95682.16;5081950;28;19920;-83
2022/11/05 03:33:37;;;;;;;;;;;10.40;80.50;;;9.32;nan;95675.84;5081561;28;19920;-84
2022/11/05 03:36:08;;;;;;;;;;;10.30;80.60;;;9.33;nan;95676.69;5064872;28;20119;-83
2022/11/05 03:38:38;;;;;;;;;;;10.30;80.60;;;9.32;nan;95675.84;5082110;28;19920;-83
2022/11/05 03:41:07;;;;;;;;;;;10.30;80.60;;;9.32;nan;95680.50;5068366;28;19921;-83
2022/11/05 03:43:36;;;;;;;;;;;10.30;80.50;;;9.33;nan;95682.16;5085217;28;20208;-84
2022/11/05 03:46:06;;;;;;;;;;;10.40;80.50;;;9.33;nan;95682.94;5085040;28;19928;-83
2022/11/05 03:48:35;;;;;;;;;;;10.30;80.60;;;9.33;nan;95682.94;5085314;28;19926;-83
2022/11/05 03:51:07;;;;;;;;;;;10.30;80.50;;;9.33;nan;95687.63;5068292;28;20237;-84
2022/11/05 03:53:36;;;;;;;;;;;10.30;80.60;;;9.33;nan;95682.16;5084993;28;19920;-83
2022/11/05 03:56:06;;;;;;;;;;;10.30;80.60;;;9.32;nan;95677.78;5068205;28;19920;-83
2022/11/05 03:58:34;;;;;;;;;;;10.40;80.70;;;9.33;nan;95682.94;5085254;28;20212;-84
2022/11/05 04:01:03;;;;;;;;;;;10.30;80.60;;;9.32;nan;95680.50;5084838;28;20220;-84
2022/11/05 04:03:34;;;;;;;;;;;10.30;80.60;;;9.31;nan;95679.66;5085113;28;19927;-83
2022/11/05 04:14:34;;;;;;;;;;;10.30;80.60;;;9.30;nan;95680.75;5007365;28;19927;-83
2022/11/05 04:17:08;;;;;;;;;;;10.30;80.60;;;9.29;nan;95672.84;5007388;28;19921;-83
2022/11/05 04:25:09;;;;;;;;;;;10.30;80.60;;;9.30;nan;95682.69;5075761;28;19927;-83
2022/11/05 04:27:36;;;;;;;;;;;10.30;80.70;;;9.30;nan;95677.22;5064620;28;19946;-83
2022/11/05 04:30:20;;;;;;;;;;;10.30;80.60;;;9.30;nan;95678.03;5081368;28;19931;-83
2022/11/05 04:33:02;;;;;;;;;;;10.30;80.70;;;9.29;nan;95676.41;5064477;28;19942;-84
2022/11/05 04:35:30;;;;;;;;;;;10.30;80.60;;;9.29;nan;95686.50;5047332;28;19921;-84
2022/11/05 04:37:58;;;;;;;;;;;10.30;80.70;;;9.29;nan;95690.06;5064398;28;20234;-83
2022/11/05 04:40:28;;;;;;;;;;;10.30;80.70;;;9.29;nan;95692.81;5081125;28;19920;-83
2022/11/05 04:42:56;;;;;;;;;;;10.30;80.70;;;9.29;nan;95697.44;5065324;28;19920;-84
2022/11/05 04:45:24;;;;;;;;;;;10.30;80.70;;;9.28;nan;95696.63;5063707;28;20235;-83
2022/11/05 04:47:52;;;;;;;;;;;10.30;80.70;;;9.29;nan;95694.72;5064467;28;19921;-83
2022/11/05 04:50:20;;;;;;;;;;;10.30;80.70;;;9.29;nan;95695.53;5047254;28;19921;-83
2022/11/05 04:52:47;;;;;;;;;;;10.30;80.80;;;9.29;nan;95697.44;5063826;28;19924;-84
2022/11/05 04:55:15;;;;;;;;;;;10.30;80.80;;;9.28;nan;95695.81;5046938;28;20123;-83
2022/11/05 04:57:46;;;;;;;;;;;10.30;80.80;;;9.28;nan;95698.53;5030906;28;19927;-83
2022/11/05 05:00:14;;;;;;;;;;;10.30;80.80;;;9.28;nan;95693.91;5065199;28;19920;-84
2022/11/05 05:02:42;;;;;;;;;;;10.30;80.70;;;9.29;nan;95703.75;5080555;28;19920;-83
2022/11/05 05:05:10;;;;;;;;;;;10.30;80.80;;;9.28;nan;95698.53;5064486;28;19921;-83
2022/11/05 05:07:38;;;;;;;;;;;10.30;80.80;;;9.28;nan;95704.00;5063942;28;19927;-83
2022/11/05 05:10:07;;;;;;;;;;;10.30;80.80;;;9.28;nan;95701.25;5047363;28;19927;-83
2022/11/05 05:12:35;;;;;;;;;;;10.30;80.80;;;9.28;nan;95704.00;5047087;28;19920;-83
2022/11/05 05:15:05;;;;;;;;;;;10.30;80.80;;;9.28;nan;95706.72;5064498;28;19927;-84
2022/11/05 05:17:33;;;;;;;;;;;10.30;80.90;;;9.28;nan;95709.47;5063660;28;19927;-83
2022/11/05 05:22:51;;;;;;;;;;;10.30;80.80;;;9.28;nan;95713.03;5046964;28;19920;-83
2022/11/05 05:25:19;;;;;;;;;;;10.30;80.80;;;9.28;nan;95712.19;5062949;28;19943;-83
2022/11/05 05:27:47;;;;;;;;;;;10.30;80.80;;;9.29;nan;95713.81;5046917;28;20212;-83
2022/11/05 05:30:16;;;;;;;;;;;10.30;80.80;;;9.28;nan;95714.91;5046764;28;19924;-83
2022/11/05 05:32:44;;;;;;;;;;;10.30;80.90;;;9.28;nan;95712.19;5046814;28;19927;-83
2022/11/05 05:35:12;;;;;;;;;;;10.30;80.90;;;9.28;nan;95710.28;5062873;28;19926;-83
2022/11/05 05:37:40;;;;;;;;;;;10.30;80.80;;;9.29;nan;95711.09;5063509;28;19921;-83
2022/11/05 05:40:09;;;;;;;;;;;10.30;80.60;;;9.28;nan;95721.22;5063552;28;20139;-83
2022/11/05 05:42:36;;;;;;;;;;;10.30;80.70;;;9.29;nan;95719.28;5064433;28;20098;-83
2022/11/05 05:45:05;;;;;;;;;;;10.30;80.80;;;9.27;nan;95722.31;5062968;28;19921;-83
2022/11/05 05:47:34;;;;;;;;;;;10.30;80.80;;;9.28;nan;95736.78;5063265;28;20093;-83
2022/11/05 05:50:02;;;;;;;;;;;10.30;80.80;;;9.28;nan;95740.34;5046544;28;19920;-83
2022/11/05 05:52:30;;;;;;;;;;;10.30;80.80;;;9.29;nan;95741.13;5064342;28;20250;-83
2022/11/05 05:54:58;;;;;;;;;;;10.30;80.70;;;9.28;nan;95742.22;5062701;28;19920;-84
2022/11/05 05:57:26;;;;;;;;;;;10.30;80.80;;;9.28;nan;95745.81;5063284;28;19921;-83
2022/11/05 05:59:54;;;;;;;;;;;10.30;80.80;;;9.28;nan;95744.97;5063145;28;19920;-83
2022/11/05 06:02:22;;;;;;;;;;;10.30;80.80;;;9.28;nan;95744.97;5046185;28;20127;-84
2022/11/05 06:04:51;;;;;;;;;;;10.30;80.70;;;9.29;nan;95749.34;5062468;28;19920;-83
2022/11/05 06:07:19;;;;;;;;;;;10.30;80.70;;;9.29;nan;95741.13;5046367;28;19921;-83
2022/11/05 06:09:47;;;;;;;;;;;10.30;80.80;;;9.28;nan;95743.06;5062954;28;20116;-84
2022/11/05 06:12:15;;;;;;;;;;;10.30;80.80;;;9.28;nan;95755.88;5063956;28;19927;-84
2022/11/05 06:14:43;;;;;;;;;;;10.30;80.60;;;9.29;nan;95752.91;5045652;28;19927;-83
2022/11/05 06:17:10;;;;;;;;;;;10.30;80.70;;;9.29;nan;95752.91;5079372;28;19920;-83
2022/11/05 06:19:38;;;;;;;;;;;10.30;80.70;;;9.30;nan;95759.16;5066275;28;19920;-83
2022/11/05 06:22:08;;;;;;;;;;;10.30;80.60;;;9.29;nan;95763.84;5082817;28;19944;-83
2022/11/05 06:24:35;;;;;;;;;;;10.30;80.60;;;9.31;nan;95771.75;5065907;28;20117;-83
2022/11/05 06:27:03;;;;;;;;;;;10.30;80.60;;;9.30;nan;95759.16;5082376;28;19920;-83
2022/11/05 06:29:31;;;;;;;;;;;10.30;80.50;;;9.32;nan;95762.47;5082845;28;19920;-83
2022/11/05 06:31:59;;;;;;;;;;;10.30;80.60;;;9.31;nan;95766.28;5082762;28;20089;-83
2022/11/05 06:34:27;;;;;;;;;;;10.30;80.50;;;9.31;nan;95766.28;5065851;28;19920;-83
2022/11/05 06:36:55;;;;;;;;;;;10.40;80.50;;;9.30;nan;95772.81;5082544;28;19920;-83
2022/11/05 06:39:24;;;;;;;;;;;10.30;80.50;;;9.32;nan;95773.38;5082735;28;19926;-83
2022/11/05 06:41:52;;;;;;;;;;;10.30;80.50;;;9.31;nan;95771.75;5082560;28;20120;-83
2022/11/05 06:44:21;;;;;;;;;;;10.30;80.40;;;9.31;nan;95772.53;5065540;28;19920;-83
2022/11/05 06:46:49;;;;;;;;;;;10.40;80.40;;;9.32;nan;95773.38;5065528;28;19954;-83
2022/11/05 06:49:17;;;;;;;;;;;10.30;80.40;;;9.32;nan;95773.38;5065880;28;19920;-83
2022/11/05 06:51:44;;;;;;;;;;;10.30;80.40;;;9.32;nan;95774.19;5083527;28;19924;-83
2022/11/05 06:54:12;;;;;;;;;;;10.30;80.40;;;9.32;nan;95773.38;5082341;28;19927;-83
2022/11/05 06:56:42;;;;;;;;;;;10.40;80.40;;;9.31;nan;95774.47;5082069;28;19920;-83
2022/11/05 06:59:10;;;;;;;;;;;10.30;80.50;;;9.31;nan;95783.47;5083528;28;19920;-83
2022/11/05 07:01:38;;;;;;;;;;;10.30;80.50;;;9.31;nan;95788.94;5082294;28;19920;-83
2022/11/05 07:04:05;;;;;;;;;;;10.30;80.60;;;9.31;nan;95788.94;5082121;28;19920;-83
2022/11/05 07:06:33;;;;;;;;;;;10.30;80.50;;;9.32;nan;95789.78;5065437;28;19924;-83
2022/11/05 07:09:01;;;;;;;;;;;10.30;80.40;;;9.32;nan;95795.22;5082378;28;19920;-83
2022/11/05 07:11:29;;;;;;;;;;;10.30;80.60;;;9.31;nan;95794.41;5048727;28;19920;-83
2022/11/05 07:14:00;;;;;;;;;;;10.40;80.60;;;9.31;nan;95793.59;5065592;28;19921;-83
2022/11/05 07:16:27;;;;;;;;;;;10.30;80.50;;;9.31;nan;95788.13;5085597;28;19920;-83
2022/11/05 07:18:55;;;;;;;;;;;10.40;80.50;;;9.32;nan;95787.03;5085850;28;19927;-83
2022/11/05 07:21:23;;;;;;;;;;;10.40;80.50;;;9.32;nan;95792.50;5085646;28;19920;-84
2022/11/05 07:23:51;;;;;;;;;;;10.30;80.50;;;9.33;nan;95802.34;5085443;28;19927;-83
2022/11/05 07:26:19;;;;;;;;;;;10.30;80.60;;;9.31;nan;95793.59;5068669;28;19926;-83
2022/11/05 07:28:47;;;;;;;;;;;10.30;80.60;;;9.31;nan;95797.13;5068761;28;19926;-84
2022/11/05 07:31:16;;;;;;;;;;;10.30;80.50;;;9.33;nan;95807.81;5068836;28;19927;-83
2022/11/05 07:33:44;;;;;;;;;;;10.30;81.20;;;9.33;nan;95805.06;5068367;28;19920;-83
2022/11/05 07:36:13;;;;;;;;;;;10.30;80.40;;;9.33;nan;95805.06;5085343;28;19926;-83
2022/11/05 07:38:41;;;;;;;;;;;10.30;80.40;;;9.33;nan;95802.34;5085320;28;19928;-83
2022/11/05 07:41:09;;;;;;;;;;;10.30;80.30;;;9.32;nan;95801.50;5068171;28;19926;-83
2022/11/05 07:43:37;;;;;;;;;;;10.30;80.30;;;9.33;nan;95794.16;5084912;28;19927;-84
2022/11/05 07:46:05;;;;;;;;;;;10.30;80.20;;;9.33;nan;95789.47;5085093;28;19920;-83
2022/11/05 07:48:36;;;;;;;;;;;10.30;80.10;;;9.34;nan;95793.06;5085170;28;19939;-83
2022/11/05 07:51:04;;;;;;;;;;;10.30;80.10;;;9.33;nan;95789.47;5068564;28;19920;-83
2022/11/05 07:53:32;;;;;;;;;;;10.30;80.20;;;9.34;nan;95793.06;5051597;28;19920;-83
2022/11/05 07:56:00;;;;;;;;;;;10.40;80.10;;;9.35;nan;95789.22;5084744;28;19926;-83
2022/11/05 07:58:28;;;;;;;;;;;10.40;80.00;;;9.35;nan;95789.22;5085173;28;19926;-84
2022/11/05 08:00:57;;;;;;;;;;;10.40;80.00;;;9.36;nan;95796.31;5068387;28;19920;-83
2022/11/05 08:03:24;;;;;;;;;;;10.40;79.90;;;9.35;nan;95790.03;5084805;28;20085;-84
2022/11/05 08:05:54;;;;;;;;;;;10.40;79.80;;;9.35;nan;95787.31;5085032;28;19921;-84
2022/11/05 08:08:22;;;;;;;;;;;10.40;79.80;;;9.36;nan;95793.56;5068160;28;19920;-84
2022/11/05 08:10:49;;;;;;;;;;;10.40;79.80;;;9.36;nan;95793.56;5086209;28;19920;-84
2022/11/05 08:13:18;;;;;;;;;;;10.40;79.80;;;9.36;nan;95785.38;5067991;28;19942;-84
2022/11/05 08:15:46;;;;;;;;;;;10.40;79.80;;;9.37;nan;95787.03;5084453;28;19920;-84
2022/11/05 08:18:14;;;;;;;;;;;10.40;79.80;;;9.37;nan;95795.22;5068240;28;20131;-83
2022/11/05 08:20:43;;;;;;;;;;;10.40;79.70;;;9.34;nan;95787.59;5101708;28;20097;-84
2022/11/05 08:23:12;;;;;;;;;;;10.40;79.80;;;9.36;nan;95799.88;5085599;28;20212;-84
2022/11/05 08:25:40;;;;;;;;;;;10.40;79.70;;;9.36;nan;95791.69;5083120;28;19920;-83
2022/11/05 08:28:10;;;;;;;;;;;10.40;79.70;;;9.36;nan;95791.69;5067913;28;20208;-84
2022/11/05 08:30:38;;;;;;;;;;;10.40;79.70;;;9.37;nan;95795.22;5067836;28;19926;-84
2022/11/05 08:33:07;;;;;;;;;;;10.40;79.70;;;9.37;nan;95797.94;5067799;28;19920;-83
2022/11/05 08:35:35;;;;;;;;;;;10.40;79.60;;;9.35;nan;95783.78;5085266;28;20204;-84
2022/11/05 08:38:04;;;;;;;;;;;10.40;79.60;;;9.36;nan;95785.38;5084573;28;19920;-84
2022/11/05 08:40:34;;;;;;;;;;;10.40;79.60;;;9.35;nan;95784.56;5084370;28;19920;-83
2022/11/05 08:43:03;;;;;;;;;;;10.40;79.60;;;9.36;nan;95797.16;5084304;28;19920;-84
2022/11/05 08:45:31;;;;;;;;;;;10.40;79.60;;;9.37;nan;95797.94;5083772;28;20120;-84
2022/11/05 08:47:59;;;;;;;;;;;10.40;79.60;;;9.36;nan;95793.56;5084371;28;19928;-84
2022/11/05 08:50:27;;;;;;;;;;;10.40;79.50;;;9.38;nan;95796.06;5067542;28;19920;-84
2022/11/05 08:52:55;;;;;;;;;;;10.40;79.50;;;9.38;nan;95799.59;5084344;28;20230;-84
2022/11/05 08:55:23;;;;;;;;;;;10.40;79.50;;;9.39;nan;95800.44;5066875;28;19920;-84
2022/11/05 08:57:56;;;;;;;;;;;10.40;79.40;;;9.39;nan;95795.78;5085403;28;19926;-84
2022/11/05 09:00:24;;;;;;;;;;;10.40;79.40;;;9.38;nan;95791.41;5084140;28;20123;-84
2022/11/05 09:02:52;;;;;;;;;;;10.40;79.40;;;9.38;nan;95793.31;5084034;28;19920;-83
2022/11/05 09:05:20;;;;;;;;;;;10.40;79.40;;;9.39;nan;95779.38;5083567;28;19920;-85
2022/11/05 09:07:48;;;;;;;;;;;10.40;79.40;;;9.38;nan;95782.38;5067332;28;19926;-84
2022/11/05 09:10:16;;;;;;;;;;;10.40;79.30;;;9.38;nan;95791.41;5085106;28;20226;-84
2022/11/05 09:12:44;;;;;;;;;;;10.40;79.40;;;9.39;nan;95789.50;5067334;28;19920;-84
2022/11/05 09:15:13;;;;;;;;;;;10.40;79.40;;;9.40;nan;95785.69;5084477;28;19920;-84
2022/11/05 09:17:41;;;;;;;;;;;10.40;79.30;;;9.40;nan;95783.75;5083958;28;19920;-84
2022/11/05 09:20:10;;;;;;;;;;;10.40;79.30;;;9.41;nan;95779.94;5067061;28;19920;-84
2022/11/05 09:22:38;;;;;;;;;;;10.40;79.30;;;9.42;nan;95778.84;5067109;28;19920;-84
2022/11/05 09:25:08;;;;;;;;;;;10.40;79.30;;;9.43;nan;95791.41;5066339;28;19920;-84
2022/11/05 09:27:36;;;;;;;;;;;10.40;79.30;;;9.44;nan;95781.28;5067068;28;19926;-84
2022/11/05 09:30:05;;;;;;;;;;;10.40;79.30;;;9.45;nan;95777.47;5083559;28;19924;-84
2022/11/05 09:32:34;;;;;;;;;;;10.40;79.20;;;9.45;nan;95774.72;5067031;28;19926;-84
2022/11/05 09:35:02;;;;;;;;;;;10.50;79.30;;;9.44;nan;95765.72;5066317;28;19920;-84
2022/11/05 09:37:30;;;;;;;;;;;10.50;79.30;;;9.46;nan;95765.44;5066630;28;19920;-84
2022/11/05 09:39:58;;;;;;;;;;;10.50;79.20;;;9.45;nan;95769.25;5071270;28;20090;-84
2022/11/05 09:42:28;;;;;;;;;;;10.50;79.20;;;9.46;nan;95769.00;5063411;28;19920;-83
2022/11/05 09:44:58;;;;;;;;;;;10.50;79.20;;;9.46;nan;95769.00;5045960;28;19927;-84
2022/11/05 09:47:27;;;;;;;;;;;10.50;79.20;;;9.46;nan;95752.63;5046826;28;19924;-84
2022/11/05 09:49:57;;;;;;;;;;;10.50;79.20;;;9.47;nan;95773.38;5063320;28;19931;-84
2022/11/05 09:52:27;;;;;;;;;;;10.50;79.20;;;9.47;nan;95776.13;5063285;28;19920;-84
2022/11/05 09:54:55;;;;;;;;;;;10.50;79.20;;;9.47;nan;95767.09;5045985;28;19920;-84
2022/11/05 09:57:25;;;;;;;;;;;10.50;79.20;;;9.49;nan;95771.16;5046691;28;19927;-84
2022/11/05 09:59:54;;;;;;;;;;;10.50;79.20;;;9.49;nan;95762.97;5046450;28;20393;-84
2022/11/05 10:02:24;;;;;;;;;;;10.50;79.90;;;9.49;nan;95771.16;5046466;28;19920;-84
2022/11/05 10:04:54;;;;;;;;;;;10.50;79.10;;;9.49;nan;95760.25;5063560;28;19927;-84
2022/11/05 10:07:23;;;;;;;;;;;10.50;79.20;;;9.50;nan;95753.69;5063017;28;19920;-84
2022/11/05 10:09:53;;;;;;;;;;;10.50;79.20;;;9.50;nan;95753.69;5062928;28;20101;-84
2022/11/05 10:12:24;;;;;;;;;;;10.50;79.10;;;9.52;nan;95762.44;5046431;28;19920;-84
2022/11/05 10:14:58;;;;;;;;;;;10.50;79.20;;;9.53;nan;95757.81;5045786;28;19920;-84
2022/11/05 10:17:26;;;;;;;;;;;10.50;79.20;;;9.54;nan;95758.59;5063106;28;19920;-84
2022/11/05 10:19:56;;;;;;;;;;;10.50;79.30;;;9.54;nan;95756.72;5062768;28;19920;-84
2022/11/05 10:22:25;;;;;;;;;;;10.60;79.30;;;9.54;nan;95762.19;5046222;28;20362;-84
2022/11/05 10:24:53;;;;;;;;;;;10.60;79.40;;;9.55;nan;95755.63;5063337;28;19924;-84
2022/11/05 10:27:23;;;;;;;;;;;10.60;79.40;;;9.57;nan;95752.59;5046237;28;19920;-84
2022/11/05 10:29:51;;;;;;;;;;;10.60;79.30;;;9.57;nan;95750.66;5062660;28;19921;-84
2022/11/05 10:32:26;;;;;;;;;;;10.60;79.40;;;9.60;nan;95757.53;5062672;28;19925;-84
2022/11/05 10:34:54;;;;;;;;;;;10.60;79.30;;;9.60;nan;95757.53;5045361;28;19920;-84
2022/11/05 10:37:22;;;;;;;;;;;10.60;79.30;;;9.61;nan;95761.91;5046018;28;20212;-84
2022/11/05 10:39:51;;;;;;;;;;;10.60;79.10;;;9.61;nan;95762.69;5062489;28;19921;-84
2022/11/05 10:42:28;;;;;;;;;;;10.60;79.20;;;9.61;nan;95759.16;5045877;28;19931;-84
2022/11/05 10:44:59;;;;;;;;;;;10.60;79.20;;;9.63;nan;95770.63;5045177;28;19925;-84
2022/11/05 10:47:42;;;;;;;;;;;10.60;79.20;;;9.62;nan;95760.78;5045685;28;19927;-84
2022/11/05 10:50:11;;;;;;;;;;;10.70;79.20;;;9.62;nan;95760.78;5045042;28;19936;-84
2022/11/05 10:52:41;;;;;;;;;;;10.70;79.20;;;9.61;nan;95757.22;5045758;28;20351;-84
2022/11/05 10:55:16;;;;;;;;;;;10.70;79.30;;;9.62;nan;95766.25;5045213;28;19925;-84
2022/11/05 10:57:44;;;;;;;;;;;10.70;79.30;;;9.63;nan;95756.94;5063691;28;19927;-84
2022/11/05 11:00:23;;;;;;;;;;;10.70;79.30;;;9.62;nan;95756.13;5062390;28;19927;-84
2022/11/05 11:02:52;;;;;;;;;;;10.70;79.40;;;9.63;nan;95752.31;5063434;28;19930;-85
2022/11/05 11:05:23;;;;;;;;;;;10.70;80.20;;;9.63;nan;95746.00;5044982;28;19921;-85
2022/11/05 11:07:56;;;;;;;;;;;10.70;79.40;;;9.63;nan;95751.47;5045507;28;19920;-85
2022/11/05 11:10:25;;;;;;;;;;;10.70;79.30;;;9.63;nan;95746.00;5045659;28;19921;-84
2022/11/05 11:12:53;;;;;;;;;;;10.70;79.30;;;9.63;nan;95746.84;5045466;28;19927;-85
2022/11/05 11:15:26;;;;;;;;;;;10.70;79.30;;;9.62;nan;95739.75;5044854;28;19926;-84
2022/11/05 11:17:55;;;;;;;;;;;10.70;79.40;;;9.64;nan;95753.97;5045573;28;19927;-84
2022/11/05 11:20:25;;;;;;;;;;;10.70;79.40;;;9.66;nan;95750.94;5062072;28;19927;-84
2022/11/05 11:22:59;;;;;;;;;;;10.70;79.40;;;9.66;nan;95745.47;5045426;28;19927;-84
2022/11/05 11:25:30;;;;;;;;;;;10.70;79.30;;;9.66;nan;95740.00;5044694;28;20093;-85
2022/11/05 11:28:02;;;;;;;;;;;10.70;79.30;;;9.67;nan;95733.44;5063124;28;19920;-85
2022/11/05 11:30:30;;;;;;;;;;;10.70;79.30;;;9.67;nan;95742.47;5045237;28;20105;-84
2022/11/05 11:33:06;;;;;;;;;;;10.70;79.20;;;9.67;nan;95745.22;5045284;28;19943;-84
2022/11/05 11:35:36;;;;;;;;;;;10.70;79.20;;;9.66;nan;95740.84;5044835;28;19921;-84
2022/11/05 11:38:04;;;;;;;;;;;10.70;79.30;;;9.67;nan;95737.00;5045224;28;19927;-84
2022/11/05 11:40:35;;;;;;;;;;;10.70;79.20;;;9.67;nan;95734.28;5061914;28;19920;-84
2022/11/05 11:43:05;;;;;;;;;;;10.70;79.30;;;9.66;nan;95740.00;5028420;28;19935;-84
2022/11/05 11:45:34;;;;;;;;;;;10.70;79.30;;;9.64;nan;95732.09;5044500;28;19928;-84
2022/11/05 11:48:02;;;;;;;;;;;10.70;79.30;;;9.67;nan;95738.91;5061618;28;19920;-85
2022/11/05 11:50:36;;;;;;;;;;;10.70;79.30;;;9.66;nan;95726.34;5045381;28;20239;-85
2022/11/05 11:53:31;;;;;;;;;;;10.70;79.20;;;9.67;nan;95731.53;5061903;28;20209;-84
2022/11/05 11:56:06;;;;;;;;;;;10.70;79.20;;;9.68;nan;95740.56;5058477;28;20229;-85
2022/11/05 11:58:39;;;;;;;;;;;10.70;79.20;;;9.68;nan;95732.34;5045030;28;19921;-84
2022/11/05 12:01:41;;;;;;;;;;;10.70;79.30;;;9.70;nan;95734.78;5046808;28;20128;-85
2022/11/05 12:04:25;;;;;;;;;;;10.70;79.30;;;9.68;nan;95729.63;5064819;28;19986;-85
2022/11/05 12:06:59;;;;;;;;;;;10.70;79.20;;;9.69;nan;95734.00;5048004;28;19921;-85
2022/11/05 12:09:32;;;;;;;;;;;10.70;79.30;;;9.69;nan;95731.25;5048205;28;20213;-85
2022/11/05 12:12:03;;;;;;;;;;;10.70;79.30;;;9.67;nan;95731.53;5048217;28;19927;-85
2022/11/05 12:14:34;;;;;;;;;;;10.70;79.30;;;9.68;nan;95730.44;5047871;28;19933;-85
2022/11/05 12:17:11;;;;;;;;;;;10.70;79.30;;;9.69;nan;95725.78;5055419;28;19920;-84
2022/11/05 12:20:03;;;;;;;;;;;10.70;79.30;;;9.68;nan;95727.69;5068025;28;19927;-85
2022/11/05 12:22:36;;;;;;;;;;;10.70;79.30;;;9.67;nan;95727.97;5068080;28;19920;-85
2022/11/05 12:25:13;;;;;;;;;;;10.70;79.40;;;9.67;nan;95727.97;5085245;28;19920;-85
2022/11/05 12:27:54;;;;;;;;;;;10.70;79.40;;;9.67;nan;95730.72;5067903;28;19926;-85
2022/11/05 12:30:22;;;;;;;;;;;10.70;79.40;;;9.66;nan;95723.59;5084722;28;19920;-84
2022/11/05 12:33:27;;;;;;;;;;;10.70;79.50;;;9.65;nan;95731.00;5067854;28;19920;-85
2022/11/05 12:36:03;;;;;;;;;;;10.70;79.40;;;9.65;nan;95721.97;5007206;28;19921;-84